Time;durP1;ratioP1;P1;durP2;ratioP2;P2;SDS_P1;SDS_P2;PMS_P1;PMS_P2;Temp;Humidity;BMP_temperature;BMP_pressure;BME280_temperature;BME280_humidity;BME280_pressure;Samples;Min_cycle;Max_cycle;Signal;HPM_P1;HPM_P2
2022/09/02 00:01:01;;;;;;;11.17;8.33;;;;;;;23.35;75.29;96806.31;5086821;28;20200;-75
2022/09/02 00:03:33;;;;;;;12.03;7.20;;;;;;;23.57;74.12;96818.19;5086865;28;20746;-79
2022/09/02 00:06:02;;;;;;;11.40;7.40;;;;;;;23.28;75.55;96814.97;5087020;28;20977;-79
2022/09/02 00:08:30;;;;;;;17.50;8.37;;;;;;;23.38;75.43;96808.66;5086409;28;20195;-82
2022/09/02 00:11:00;;;;;;;10.77;7.67;;;;;;;23.53;74.64;96819.50;5086175;28;20191;-79
2022/09/02 00:13:27;;;;;;;13.67;7.23;;;;;;;23.63;74.41;96822.84;5086395;28;20184;-80
2022/09/02 00:15:55;;;;;;;9.07;7.20;;;;;;;23.54;74.46;96821.13;5085630;28;20212;-76
2022/09/02 00:18:25;;;;;;;11.80;7.50;;;;;;;23.68;73.78;96814.47;5086635;28;20216;-76
2022/09/02 00:20:54;;;;;;;10.93;7.23;;;;;;;23.67;73.98;96821.56;5085464;28;20189;-76
2022/09/02 00:23:21;;;;;;;13.47;7.57;;;;;;;23.59;74.20;96813.59;5086971;28;20249;-83
2022/09/02 00:25:53;;;;;;;13.03;7.57;;;;;;;23.68;74.13;96812.63;5068199;28;20622;-80
2022/09/02 00:28:20;;;;;;;11.20;7.37;;;;;;;23.62;73.93;96815.91;5085818;28;20217;-81
2022/09/02 00:30:51;;;;;;;14.03;7.23;;;;;;;23.49;74.58;96804.09;5086456;28;20202;-83
2022/09/02 00:33:19;;;;;;;11.07;7.30;;;;;;;23.55;74.56;96806.94;5085494;28;20273;-77
2022/09/02 00:35:46;;;;;;;12.90;8.13;;;;;;;23.65;73.80;96810.31;5051746;28;20478;-79
2022/09/02 00:38:14;;;;;;;10.70;7.77;;;;;;;23.60;73.77;96807.28;5068774;28;20226;-79
2022/09/02 00:40:47;;;;;;;8.67;7.40;;;;;;;23.53;74.44;96806.28;5086513;28;20235;-78
2022/09/02 00:43:38;;;;;;;10.33;7.57;;;;;;;23.51;74.67;96804.75;5087014;28;20227;-81
2022/09/02 00:46:05;;;;;;;10.33;7.67;;;;;;;23.47;75.31;96793.69;5068603;28;20292;-73
2022/09/02 00:48:36;;;;;;;10.87;7.50;;;;;;;23.54;74.61;96794.69;5083547;28;20199;-83
2022/09/02 00:51:04;;;;;;;12.13;7.67;;;;;;;23.54;74.92;96792.06;5087718;28;20223;-73
2022/09/02 00:53:32;;;;;;;13.13;7.67;;;;;;;23.27;75.55;96795.63;5087146;28;20203;-81
2022/09/02 00:56:01;;;;;;;11.33;8.10;;;;;;;23.49;74.67;96798.81;5086956;28;20215;-81
2022/09/02 00:58:34;;;;;;;13.37;7.63;;;;;;;23.40;75.47;96798.75;5088852;28;20212;-81
2022/09/02 01:01:02;;;;;;;13.67;7.77;;;;;;;23.31;76.09;96804.06;5072386;28;20255;-75
2022/09/02 01:03:31;;;;;;;11.63;8.10;;;;;;;23.47;75.12;96798.13;5067596;28;20278;-79
2022/09/02 01:06:00;;;;;;;13.03;8.70;;;;;;;23.42;74.80;96803.88;5066502;28;20207;-76
2022/09/02 01:08:33;;;;;;;17.40;8.33;;;;;;;23.23;75.97;96807.50;5075368;28;20194;-77
2022/09/02 01:11:03;;;;;;;10.63;7.57;;;;;;;23.43;75.04;96805.53;5066575;28;20664;-81
2022/09/02 01:13:39;;;;;;;11.60;8.40;;;;;;;23.27;76.43;96813.31;5066284;28;20253;-75
2022/09/02 01:16:23;;;;;;;10.37;8.23;;;;;;;23.14;76.37;96818.16;5067606;28;20292;-79
2022/09/02 01:18:56;;;;;;;12.60;8.50;;;;;;;23.34;75.70;96806.47;5066478;28;20184;-83
2022/09/02 01:21:23;;;;;;;12.90;7.90;;;;;;;23.41;75.50;96810.16;5065120;28;20261;-79
2022/09/02 01:23:52;;;;;;;11.07;8.30;;;;;;;23.45;75.65;96803.56;5067611;28;20497;-82
2022/09/02 01:26:19;;;;;;;14.77;8.27;;;;;;;23.63;74.64;96808.81;5066604;28;20205;-76
2022/09/02 01:28:46;;;;;;;13.53;8.57;;;;;;;23.68;74.88;96809.97;5067011;28;20188;-73
2022/09/02 01:31:14;;;;;;;15.30;8.47;;;;;;;23.36;75.30;96773.63;5066328;28;20627;-78
2022/09/02 01:33:42;;;;;;;9.97;7.77;;;;;;;23.36;76.14;96805.34;5069108;28;20217;-73
2022/09/02 01:36:12;;;;;;;11.37;7.73;;;;;;;23.52;75.32;96801.13;5070345;28;20274;-74
2022/09/02 01:38:40;;;;;;;12.53;8.17;;;;;;;23.37;76.00;96798.22;5069395;28;20239;-75
2022/09/02 01:41:08;;;;;;;11.73;8.23;;;;;;;23.50;75.15;96797.81;5070810;28;20282;-81
2022/09/02 01:43:36;;;;;;;10.87;9.07;;;;;;;23.57;74.70;96807.63;5068759;28;20213;-73
2022/09/02 01:46:04;;;;;;;11.67;9.00;;;;;;;23.47;75.48;96798.13;5068609;28;20235;-82
2022/09/02 01:48:31;;;;;;;12.10;9.73;;;;;;;23.66;74.27;96801.38;5067591;28;20183;-75
2022/09/02 01:51:02;;;;;;;15.00;8.87;;;;;;;23.52;75.53;96801.94;5068516;28;20679;-77
2022/09/02 01:53:31;;;;;;;12.63;9.00;;;;;;;23.58;74.72;96801.31;5067923;28;20207;-83
2022/09/02 01:55:59;;;;;;;15.57;8.47;;;;;;;23.50;75.08;96792.50;5067711;28;20239;-80
2022/09/02 01:58:29;;;;;;;13.63;8.70;;;;;;;23.53;75.51;96787.75;5068273;28;20255;-83
2022/09/02 02:00:56;;;;;;;14.17;8.20;;;;;;;23.39;76.91;96790.94;5068622;28;20188;-79
2022/09/02 02:03:24;;;;;;;17.60;9.80;;;;;;;23.38;76.31;96778.72;5069251;28;20668;-79
2022/09/02 02:05:52;;;;;;;12.37;8.83;;;;;;;23.34;76.62;96778.22;5068908;28;20679;-73
2022/09/02 02:08:20;;;;;;;14.50;8.93;;;;;;;23.39;76.55;96783.84;5067475;28;20272;-80
2022/09/02 02:10:48;;;;;;;14.47;9.73;;;;;;;23.20;77.05;96788.50;5067296;28;20184;-80
2022/09/02 02:13:17;;;;;;;13.50;9.37;;;;;;;23.00;78.45;96789.66;5067202;28;20530;-77
2022/09/02 02:15:44;;;;;;;13.23;9.53;;;;;;;22.96;78.33;96788.28;5068737;28;20191;-74
2022/09/02 02:18:11;;;;;;;13.27;10.13;;;;;;;23.05;78.09;96787.38;5067096;28;20189;-81
2022/09/02 02:20:39;;;;;;;13.57;9.57;;;;;;;23.17;77.39;96780.84;5067783;28;20286;-81
2022/09/02 02:23:10;;;;;;;16.60;9.37;;;;;;;23.08;78.32;96777.31;5068194;28;20195;-78
2022/09/02 02:25:38;;;;;;;14.37;10.60;;;;;;;23.25;77.68;96783.56;5077279;28;20220;-76
2022/09/02 02:28:05;;;;;;;12.67;9.10;;;;;;;23.23;77.99;96773.16;5064562;28;20204;-79
2022/09/02 02:30:34;;;;;;;12.33;9.63;;;;;;;23.30;78.07;96781.28;5071294;28;20275;-82
2022/09/02 02:33:03;;;;;;;11.33;9.27;;;;;;;23.09;77.86;96746.44;5061497;28;20213;-76
2022/09/02 02:35:31;;;;;;;12.53;8.70;;;;;;;23.48;77.03;96776.81;5080858;28;20200;-76
2022/09/02 02:37:58;;;;;;;12.60;8.57;;;;;;;23.39;76.91;96780.38;5079039;28;20301;-80
2022/09/02 02:40:31;;;;;;;12.27;8.50;;;;;;;23.31;77.15;96780.28;5086064;28;20238;-80
2022/09/02 02:42:59;;;;;;;12.43;9.27;;;;;;;23.44;76.71;96780.75;5088619;28;20678;-79
2022/09/02 02:45:27;;;;;;;12.97;9.03;;;;;;;23.33;77.40;96776.56;5066539;28;20260;-79
2022/09/02 02:47:55;;;;;;;12.93;9.03;;;;;;;23.27;77.04;96765.72;5068232;28;20681;-76
2022/09/02 02:50:24;;;;;;;16.27;8.63;;;;;;;23.35;77.34;96781.69;5067042;28;20676;-80
2022/09/02 02:52:53;;;;;;;13.87;9.07;;;;;;;23.19;77.87;96773.59;5067838;28;20666;-81
2022/09/02 02:55:24;;;;;;;9.47;8.47;;;;;;;23.21;77.87;96776.91;5030530;28;20209;-81
2022/09/02 02:57:53;;;;;;;17.07;9.37;;;;;;;23.05;78.23;96768.88;5047547;28;20738;-80
2022/09/02 03:00:27;;;;;;;15.60;9.17;;;;;;;22.98;78.12;96765.22;5030261;28;20705;-73
2022/09/02 03:03:00;;;;;;;14.87;10.20;;;;;;;23.00;78.87;96779.09;5047810;28;20522;-74
2022/09/02 03:05:28;;;;;;;12.43;8.33;;;;;;;22.99;78.44;96761.56;5046274;28;20229;-76
2022/09/02 03:07:56;;;;;;;9.73;8.27;;;;;;;23.13;77.92;96774.22;5029987;28;20209;-81
2022/09/02 03:10:25;;;;;;;13.80;8.93;;;;;;;23.17;77.70;96773.78;5046269;28;20635;-80
2022/09/02 03:12:53;;;;;;;16.23;9.33;;;;;;;23.14;78.41;96773.25;5048265;28;20217;-78
2022/09/02 03:15:21;;;;;;;10.87;8.73;;;;;;;23.09;77.78;96768.44;5046428;28;20194;-82
2022/09/02 03:17:53;;;;;;;11.07;9.07;;;;;;;23.03;77.80;96769.03;5046857;28;20204;-85
2022/09/02 03:20:22;;;;;;;12.00;8.33;;;;;;;22.99;78.40;96777.41;5046771;28;20569;-78
2022/09/02 03:22:56;;;;;;;15.67;9.73;;;;;;;22.95;78.91;96762.84;5046674;28;20245;-77
2022/09/02 03:25:26;;;;;;;12.57;9.13;;;;;;;22.99;78.43;96766.84;5047116;28;20308;-75
2022/09/02 03:28:03;;;;;;;14.67;10.30;;;;;;;22.94;78.14;96766.47;5047438;28;20207;-73
2022/09/02 03:30:32;;;;;;;15.30;12.30;;;;;;;22.98;78.51;96771.28;5048375;28;20196;-76
2022/09/02 03:33:01;;;;;;;11.53;9.63;;;;;;;22.96;78.42;96762.69;5046690;28;20184;-77
2022/09/02 03:35:33;;;;;;;11.20;9.37;;;;;;;22.92;78.02;96771.06;5063030;28;20203;-80
2022/09/02 03:38:00;;;;;;;12.30;8.67;;;;;;;22.89;78.30;96777.50;5046441;28;20278;-73
2022/09/02 03:40:29;;;;;;;13.43;8.30;;;;;;;22.84;78.52;96779.75;5046091;28;20224;-77
2022/09/02 03:42:56;;;;;;;13.20;9.10;;;;;;;23.02;77.42;96779.78;5054163;28;20665;-75
2022/09/02 03:45:28;;;;;;;12.63;8.73;;;;;;;23.04;77.88;96788.38;5046012;28;20267;-74
2022/09/02 03:47:59;;;;;;;12.60;8.17;;;;;;;23.07;77.14;96790.69;5046754;28;20193;-79
2022/09/02 03:50:32;;;;;;;12.30;8.57;;;;;;;23.09;77.28;96786.09;5046699;28;20190;-74
2022/09/02 03:53:02;;;;;;;15.43;8.90;;;;;;;23.11;76.59;96795.53;5047646;28;20288;-78
2022/09/02 03:55:29;;;;;;;11.50;8.13;;;;;;;23.09;76.54;96791.38;5045475;28;20188;-76
2022/09/02 03:57:57;;;;;;;11.37;8.50;;;;;;;23.00;77.14;96789.66;5044773;28;20181;-74
2022/09/02 04:00:30;;;;;;;13.60;8.27;;;;;;;23.02;76.95;96792.97;5045999;28;20196;-76
2022/09/02 04:03:02;;;;;;;13.67;8.50;;;;;;;23.06;76.34;96789.84;5046332;28;20200;-80
2022/09/02 04:05:31;;;;;;;8.70;7.77;;;;;;;23.07;76.56;96794.16;5045297;28;20226;-75
2022/09/02 04:08:00;;;;;;;12.90;7.90;;;;;;;23.14;76.62;96779.34;5055242;28;20195;-74
2022/09/02 04:10:28;;;;;;;22.10;9.77;;;;;;;23.13;76.27;96780.34;5048127;28;20224;-76
2022/09/02 04:12:56;;;;;;;12.43;8.40;;;;;;;23.01;76.84;96786.84;5066906;28;20871;-83
2022/09/02 04:15:24;;;;;;;12.13;8.73;;;;;;;23.20;77.05;96785.84;5065935;28;20211;-75
2022/09/02 04:17:53;;;;;;;14.83;8.40;;;;;;;23.14;77.13;96792.56;5067189;28;20189;-79
2022/09/02 04:20:20;;;;;;;17.30;8.50;;;;;;;23.19;77.39;96789.47;5064660;28;20277;-75
2022/09/02 04:22:48;;;;;;;9.63;8.20;;;;;;;23.22;76.98;96794.44;5066483;28;20196;-79
2022/09/02 04:25:16;;;;;;;10.90;8.03;;;;;;;23.10;76.92;96798.31;5066302;28;20223;-76
2022/09/02 04:27:45;;;;;;;13.13;8.30;;;;;;;23.08;76.35;96797.66;5064858;28;20193;-78
2022/09/02 04:30:15;;;;;;;9.87;8.00;;;;;;;23.20;76.34;96801.69;5075068;28;20219;-77
2022/09/02 04:32:44;;;;;;;15.03;7.93;;;;;;;23.32;75.70;96805.78;5083791;28;20196;-76
2022/09/02 04:35:12;;;;;;;9.83;7.13;;;;;;;23.35;75.35;96810.75;5065223;28;20188;-76
2022/09/02 04:37:43;;;;;;;12.47;7.50;;;;;;;23.45;74.84;96806.22;5064600;28;20188;-75
2022/09/02 04:40:11;;;;;;;11.77;7.53;;;;;;;23.45;75.07;96795.66;5064952;28;20185;-76
2022/09/02 04:42:40;;;;;;;9.77;6.73;;;;;;;23.50;73.96;96817.13;5064834;28;20185;-74
2022/09/02 04:45:08;;;;;;;11.50;7.43;;;;;;;23.61;73.43;96806.31;5047833;28;20235;-75
2022/09/02 04:47:38;;;;;;;14.43;7.00;;;;;;;23.57;72.52;96812.91;5049793;28;20598;-75
2022/09/02 04:50:07;;;;;;;9.37;6.67;;;;;;;23.68;71.70;96806.53;5062731;28;20198;-77
2022/09/02 04:52:36;;;;;;;15.30;6.43;;;;;;;23.78;71.31;96804.59;5066705;28;20203;-75
2022/09/02 04:55:05;;;;;;;9.00;6.10;;;;;;;23.76;71.16;96804.72;5064294;28;20188;-75
